Time;durP1;ratioP1;P1;durP2;ratioP2;P2;SDS_P1;SDS_P2;PMS_P1;PMS_P2;Temp;Humidity;BMP_temperature;BMP_pressure;BME280_temperature;BME280_humidity;BME280_pressure;Samples;Min_cycle;Max_cycle;Signal;HPM_P1;HPM_P2
2021/12/09 00:01:17;;;;;;;28.03;26.33;;;;;;;;;;5094362;28;20197;-73
2021/12/09 00:03:44;;;;;;;29.30;27.50;;;;;;;;;;5094483;28;20200;-75
2021/12/09 00:06:11;;;;;;;29.10;26.93;;;;;;;;;;5094351;28;20665;-76
2021/12/09 00:08:41;;;;;;;26.77;25.17;;;;;;;;;;5094359;28;20205;-77
2021/12/09 00:11:08;;;;;;;23.33;22.13;;;;;;;;;;5094291;28;20639;-75
2021/12/09 00:13:35;;;;;;;21.57;20.27;;;;;;;;;;5093957;28;20201;-74
2021/12/09 00:16:02;;;;;;;32.23;29.70;;;;;;;;;;5094561;28;20256;-76
2021/12/09 00:18:29;;;;;;;30.87;29.13;;;;;;;;;;5093889;28;20634;-74
2021/12/09 00:20:56;;;;;;;27.67;26.17;;;;;;;;;;5094049;28;20247;-78
2021/12/09 00:23:23;;;;;;;27.00;25.53;;;;;;;;;;5093830;28;20244;-73
2021/12/09 00:25:51;;;;;;;27.40;25.90;;;;;;;;;;5093904;28;20260;-77
2021/12/09 00:28:17;;;;;;;29.57;27.97;;;;;;;;;;5093917;28;20285;-76
2021/12/09 00:30:44;;;;;;;28.63;26.93;;;;;;;;;;5093629;28;20590;-72
2021/12/09 00:33:11;;;;;;;28.90;26.90;;;;;;;;;;5093714;28;20681;-73
2021/12/09 00:35:45;;;;;;;25.57;23.67;;;;;;;;;;5093399;28;20307;-75
2021/12/09 00:38:19;;;;;;;26.63;24.83;;;;;;;;;;5093814;28;20186;-72
2021/12/09 00:40:46;;;;;;;30.50;25.63;;;;;;;;;;5093537;28;20647;-77
2021/12/09 00:43:17;;;;;;;26.33;24.83;;;;;;;;;;5093832;28;20198;-73
2021/12/09 00:45:44;;;;;;;25.03;23.70;;;;;;;;;;5093394;28;20214;-73
2021/12/09 00:48:10;;;;;;;24.50;22.77;;;;;;;;;;5093434;28;20285;-73
2021/12/09 00:50:37;;;;;;;25.63;23.73;;;;;;;;;;5093362;28;20230;-73
2021/12/09 00:53:04;;;;;;;26.97;25.17;;;;;;;;;;5093681;28;20254;-84
2021/12/09 00:55:31;;;;;;;27.00;25.30;;;;;;;;;;5093628;28;20660;-84
2021/12/09 00:57:57;;;;;;;24.07;22.67;;;;;;;;;;5093281;28;20280;-81
2021/12/09 01:00:25;;;;;;;26.43;24.57;;;;;;;;;;5093335;28;20194;-82
2021/12/09 01:02:52;;;;;;;26.27;24.67;;;;;;;;;;5093428;28;20233;-84
2021/12/09 01:05:19;;;;;;;26.20;24.70;;;;;;;;;;5093275;28;20225;-83
2021/12/09 01:07:46;;;;;;;26.53;24.70;;;;;;;;;;5093087;28;20292;-83
2021/12/09 01:10:15;;;;;;;26.30;24.67;;;;;;;;;;5093227;28;20273;-81
2021/12/09 01:12:42;;;;;;;26.60;24.90;;;;;;;;;;5092846;28;20281;-82
2021/12/09 01:15:10;;;;;;;24.23;23.03;;;;;;;;;;5093244;28;20269;-84
2021/12/09 01:17:39;;;;;;;22.27;20.50;;;;;;;;;;5093113;28;20197;-82
2021/12/09 01:20:07;;;;;;;27.53;26.03;;;;;;;;;;5093109;28;20194;-82
2021/12/09 01:22:38;;;;;;;23.80;22.60;;;;;;;;;;5093148;28;20217;-82
2021/12/09 01:25:06;;;;;;;26.00;24.13;;;;;;;;;;5092775;28;20227;-83
2021/12/09 01:27:35;;;;;;;23.43;22.27;;;;;;;;;;5092634;28;20645;-83
2021/12/09 01:30:08;;;;;;;21.43;20.33;;;;;;;;;;5092690;28;20248;-84
2021/12/09 01:32:35;;;;;;;22.30;21.17;;;;;;;;;;5093056;28;20186;-82
2021/12/09 01:35:03;;;;;;;21.60;20.60;;;;;;;;;;5092473;28;20281;-73
2021/12/09 01:37:31;;;;;;;21.30;20.40;;;;;;;;;;5092798;28;20231;-72
2021/12/09 01:39:57;;;;;;;24.53;23.33;;;;;;;;;;5092430;28;20227;-84
2021/12/09 01:42:24;;;;;;;21.93;21.03;;;;;;;;;;5092991;28;20223;-84
2021/12/09 01:44:51;;;;;;;23.63;22.63;;;;;;;;;;5092345;28;20229;-78
2021/12/09 01:47:18;;;;;;;26.43;25.30;;;;;;;;;;5091394;28;20772;-74
2021/12/09 01:49:45;;;;;;;26.33;24.93;;;;;;;;;;5092563;28;20193;-73
2021/12/09 01:52:13;;;;;;;29.00;27.50;;;;;;;;;;5092494;28;20190;-77
2021/12/09 01:54:39;;;;;;;29.23;27.83;;;;;;;;;;5092748;28;20555;-76
2021/12/09 01:57:06;;;;;;;29.23;27.90;;;;;;;;;;5092215;28;20194;-77
2021/12/09 01:59:33;;;;;;;25.47;24.27;;;;;;;;;;5092482;28;20221;-72
2021/12/09 02:02:00;;;;;;;31.73;30.23;;;;;;;;;;5092402;28;20220;-73
2021/12/09 02:04:27;;;;;;;31.30;28.97;;;;;;;;;;5092376;28;20277;-76
2021/12/09 02:06:54;;;;;;;28.67;27.37;;;;;;;;;;5092014;28;20275;-72
2021/12/09 02:09:22;;;;;;;30.33;28.83;;;;;;;;;;5091960;28;20201;-79
2021/12/09 02:11:48;;;;;;;31.27;29.57;;;;;;;;;;5092394;28;20229;-73
2021/12/09 02:14:15;;;;;;;30.20;28.60;;;;;;;;;;5092366;28;20233;-76
2021/12/09 02:16:42;;;;;;;29.43;28.03;;;;;;;;;;5091959;28;20676;-75
2021/12/09 02:19:11;;;;;;;28.77;27.33;;;;;;;;;;5092061;28;20220;-79
2021/12/09 02:21:39;;;;;;;31.47;29.80;;;;;;;;;;5091919;28;20189;-75
2021/12/09 02:24:07;;;;;;;26.03;24.83;;;;;;;;;;5092007;28;20194;-71
2021/12/09 02:26:35;;;;;;;33.97;32.37;;;;;;;;;;5091812;28;20650;-76
2021/12/09 02:29:02;;;;;;;30.47;28.70;;;;;;;;;;5091718;28;20660;-79
2021/12/09 02:31:29;;;;;;;29.03;27.63;;;;;;;;;;5092178;28;20194;-75
2021/12/09 02:33:57;;;;;;;31.10;29.60;;;;;;;;;;5092621;28;20228;-75
2021/12/09 02:36:24;;;;;;;34.60;31.93;;;;;;;;;;5092161;28;20194;-76
2021/12/09 02:38:53;;;;;;;32.17;30.57;;;;;;;;;;5091714;28;20243;-74
2021/12/09 02:41:21;;;;;;;35.40;32.83;;;;;;;;;;5092075;28;20197;-78
2021/12/09 02:43:49;;;;;;;32.40;30.80;;;;;;;;;;5091783;28;20193;-73
2021/12/09 02:46:16;;;;;;;31.50;29.90;;;;;;;;;;5091982;28;20264;-73
2021/12/09 02:48:43;;;;;;;30.53;28.73;;;;;;;;;;5092038;28;20198;-77
2021/12/09 02:51:09;;;;;;;31.30;29.40;;;;;;;;;;5091666;28;20205;-72
2021/12/09 02:53:36;;;;;;;30.40;28.50;;;;;;;;;;5092803;28;20198;-74
2021/12/09 02:56:05;;;;;;;30.90;29.17;;;;;;;;;;5091943;28;20285;-74
2021/12/09 02:58:32;;;;;;;30.17;28.47;;;;;;;;;;5094397;28;20198;-76
2021/12/09 03:01:00;;;;;;;32.13;30.03;;;;;;;;;;5095422;28;20236;-72
2021/12/09 03:03:27;;;;;;;34.30;31.80;;;;;;;;;;5095381;28;20659;-72
2021/12/09 03:05:54;;;;;;;147.73;136.80;;;;;;;;;;5095599;28;20229;-74
2021/12/09 03:08:32;;;;;;;27.60;26.10;;;;;;;;;;5095522;28;20237;-77
2021/12/09 03:11:00;;;;;;;28.17;26.67;;;;;;;;;;5095273;28;20186;-74
2021/12/09 03:13:28;;;;;;;29.17;27.57;;;;;;;;;;5095701;28;20230;-76
2021/12/09 03:15:55;;;;;;;25.27;23.87;;;;;;;;;;5095609;28;20205;-78
2021/12/09 03:18:22;;;;;;;28.27;26.77;;;;;;;;;;5095449;28;20194;-76
2021/12/09 03:20:49;;;;;;;31.13;29.67;;;;;;;;;;5095198;28;20247;-79
2021/12/09 03:23:15;;;;;;;29.77;28.37;;;;;;;;;;5095852;28;20189;-77
2021/12/09 03:25:43;;;;;;;31.23;29.73;;;;;;;;;;5095158;28;20266;-75
2021/12/09 03:28:09;;;;;;;30.30;28.80;;;;;;;;;;5095187;28;20221;-77
2021/12/09 03:30:37;;;;;;;34.40;32.50;;;;;;;;;;5094647;28;20269;-75
2021/12/09 03:33:04;;;;;;;33.53;31.73;;;;;;;;;;5095102;28;20194;-77
2021/12/09 03:35:31;;;;;;;31.83;30.17;;;;;;;;;;5095127;28;20222;-75
2021/12/09 03:37:58;;;;;;;33.67;31.87;;;;;;;;;;5094654;28;20719;-72
2021/12/09 03:40:25;;;;;;;31.63;29.83;;;;;;;;;;5094697;28;20194;-74
2021/12/09 03:42:52;;;;;;;30.27;28.63;;;;;;;;;;5094870;28;20225;-72
2021/12/09 03:45:18;;;;;;;30.07;28.37;;;;;;;;;;5094875;28;20233;-76
2021/12/09 03:47:46;;;;;;;34.13;31.33;;;;;;;;;;5094472;28;20736;-72
2021/12/09 03:50:14;;;;;;;28.77;27.47;;;;;;;;;;5094698;28;20198;-74
2021/12/09 03:52:40;;;;;;;28.93;27.33;;;;;;;;;;5095534;28;20241;-75
2021/12/09 03:55:08;;;;;;;35.47;32.70;;;;;;;;;;5094364;28;20229;-73
2021/12/09 03:57:35;;;;;;;25.73;24.53;;;;;;;;;;5094698;28;20258;-74
2021/12/09 04:00:02;;;;;;;31.80;29.83;;;;;;;;;;5094581;28;20247;-74
2021/12/09 04:02:28;;;;;;;26.57;25.37;;;;;;;;;;5094536;28;20314;-72
2021/12/09 04:04:57;;;;;;;24.03;22.73;;;;;;;;;;5094582;28;20189;-77
2021/12/09 04:07:23;;;;;;;27.57;25.87;;;;;;;;;;5094023;28;20782;-72
2021/12/09 04:09:50;;;;;;;34.73;31.17;;;;;;;;;;5093488;28;20233;-76
2021/12/09 04:12:19;;;;;;;25.67;24.33;;;;;;;;;;5094422;28;20555;-74
2021/12/09 04:14:46;;;;;;;25.97;24.67;;;;;;;;;;5094405;28;20201;-73
2021/12/09 04:17:12;;;;;;;23.33;22.13;;;;;;;;;;5094286;28;20190;-73
2021/12/09 04:19:46;;;;;;;24.33;22.43;;;;;;;;;;5093913;28;20194;-77
2021/12/09 04:22:14;;;;;;;25.60;24.27;;;;;;;;;;5094239;28;20190;-76
2021/12/09 04:24:41;;;;;;;25.33;23.93;;;;;;;;;;5094107;28;20272;-77
2021/12/09 04:27:08;;;;;;;23.40;22.20;;;;;;;;;;5093750;28;20221;-73
2021/12/09 04:29:35;;;;;;;22.93;21.73;;;;;;;;;;5093863;28;20310;-75
2021/12/09 04:32:01;;;;;;;26.20;24.67;;;;;;;;;;5093719;28;20277;-78
2021/12/09 04:34:28;;;;;;;32.63;29.53;;;;;;;;;;5094123;28;20194;-84
2021/12/09 04:36:55;;;;;;;36.33;29.83;;;;;;;;;;5093885;28;20202;-86
2021/12/09 04:39:23;;;;;;;25.30;23.60;;;;;;;;;;5093819;28;20193;-85
2021/12/09 04:41:50;;;;;;;24.50;22.97;;;;;;;;;;5093470;28;20198;-83
2021/12/09 04:44:17;;;;;;;22.23;21.03;;;;;;;;;;5093666;28;20198;-83
2021/12/09 04:46:44;;;;;;;35.87;24.97;;;;;;;;;;5093429;28;20221;-85
2021/12/09 04:49:11;;;;;;;23.37;22.17;;;;;;;;;;5093987;28;20335;-82
2021/12/09 04:51:38;;;;;;;23.57;22.27;;;;;;;;;;5093294;28;20571;-84
2021/12/09 04:54:05;;;;;;;23.77;22.30;;;;;;;;;;5093199;28;20194;-81
2021/12/09 04:56:33;;;;;;;21.03;19.93;;;;;;;;;;5093207;28;20200;-85
2021/12/09 04:59:00;;;;;;;19.87;18.87;;;;;;;;;;5093131;28;20617;-84
2021/12/09 05:01:27;;;;;;;22.33;21.03;;;;;;;;;;5093317;28;20265;-82
2021/12/09 05:03:53;;;;;;;23.80;22.20;;;;;;;;;;5093106;28;20194;-85
2021/12/09 05:06:20;;;;;;;21.30;20.20;;;;;;;;;;5092904;28;20583;-82
2021/12/09 05:08:48;;;;;;;21.40;20.30;;;;;;;;;;5093027;28;20251;-84
2021/12/09 05:11:28;;;;;;;20.53;19.33;;;;;;;;;;5093175;28;20197;-84
2021/12/09 05:13:57;;;;;;;20.90;19.80;;;;;;;;;;5092923;28;20229;-85
2021/12/09 05:16:24;;;;;;;21.27;20.17;;;;;;;;;;5092771;28;20280;-72
2021/12/09 05:18:57;;;;;;;21.40;20.30;;;;;;;;;;5092871;28;20246;-73
2021/12/09 05:21:24;;;;;;;25.60;24.23;;;;;;;;;;5092760;28;20239;-85
2021/12/09 05:23:50;;;;;;;21.40;20.27;;;;;;;;;;5092723;28;20259;-82
2021/12/09 05:26:19;;;;;;;21.73;20.57;;;;;;;;;;5092588;28;20255;-78
2021/12/09 05:28:52;;;;;;;22.13;20.90;;;;;;;;;;5092620;28;20577;-77
2021/12/09 05:34:05;;;;;;;23.60;22.30;;;;;;;;;;5092704;28;20307;-77
2021/12/09 05:36:31;;;;;;;22.73;21.53;;;;;;;;;;5092493;28;20225;-74
2021/12/09 05:38:58;;;;;;;23.40;22.10;;;;;;;;;;5092803;28;20193;-79
2021/12/09 05:41:25;;;;;;;24.00;21.93;;;;;;;;;;5092487;28;20198;-73
2021/12/09 05:43:52;;;;;;;22.20;21.00;;;;;;;;;;5092702;28;20270;-76
2021/12/09 05:46:22;;;;;;;24.00;22.70;;;;;;;;;;5092307;28;20281;-75
2021/12/09 05:48:50;;;;;;;24.40;23.10;;;;;;;;;;5092402;28;20190;-72
2021/12/09 05:51:17;;;;;;;22.73;21.63;;;;;;;;;;5092307;28;20710;-72
2021/12/09 05:53:43;;;;;;;27.27;25.60;;;;;;;;;;5092350;28;20193;-76
2021/12/09 05:56:10;;;;;;;21.57;20.37;;;;;;;;;;5092271;28;20197;-73
2021/12/09 05:58:37;;;;;;;20.83;19.73;;;;;;;;;;5092587;28;20201;-75
2021/12/09 06:01:03;;;;;;;23.60;22.30;;;;;;;;;;5092430;28;20284;-74
2021/12/09 06:03:33;;;;;;;22.47;21.27;;;;;;;;;;5092409;28;20197;-72
2021/12/09 06:06:00;;;;;;;23.47;22.07;;;;;;;;;;5092472;28;20202;-73
2021/12/09 06:08:27;;;;;;;24.57;23.47;;;;;;;;;;5092004;28;20283;-76
2021/12/09 06:10:54;;;;;;;22.87;21.57;;;;;;;;;;5092956;28;20247;-76
2021/12/09 06:13:22;;;;;;;21.40;20.20;;;;;;;;;;5092029;28;20237;-76
2021/12/09 06:15:49;;;;;;;21.97;20.60;;;;;;;;;;5092082;28;20664;-76
2021/12/09 06:18:15;;;;;;;25.13;23.63;;;;;;;;;;5092373;28;20226;-76
2021/12/09 06:20:43;;;;;;;33.23;25.27;;;;;;;;;;5091956;28;20204;-81
2021/12/09 06:23:10;;;;;;;24.83;23.33;;;;;;;;;;5092250;28;20202;-75
2021/12/09 06:25:37;;;;;;;32.53;29.60;;;;;;;;;;5092220;28;20232;-79
2021/12/09 06:28:04;;;;;;;23.93;22.63;;;;;;;;;;5092196;28;20638;-83
2021/12/09 06:30:30;;;;;;;27.83;26.20;;;;;;;;;;5091790;28;20229;-77
2021/12/09 06:32:57;;;;;;;24.07;22.67;;;;;;;;;;5094115;28;20796;-83
2021/12/09 06:35:26;;;;;;;26.23;24.43;;;;;;;;;;5096278;28;20193;-77
2021/12/09 06:37:55;;;;;;;32.60;30.23;;;;;;;;;;5095818;28;20197;-77
2021/12/09 06:40:22;;;;;;;28.90;26.77;;;;;;;;;;5095826;28;20645;-78
2021/12/09 06:42:50;;;;;;;24.10;22.70;;;;;;;;;;5096118;28;20197;-77
2021/12/09 06:45:17;;;;;;;23.00;21.70;;;;;;;;;;5096113;28;20254;-79
2021/12/09 06:47:44;;;;;;;25.63;24.13;;;;;;;;;;5096279;28;20316;-79
2021/12/09 06:50:13;;;;;;;24.30;22.90;;;;;;;;;;5095982;28;20289;-77
2021/12/09 06:52:40;;;;;;;25.80;24.30;;;;;;;;;;5095993;28;20623;-77
2021/12/09 06:55:10;;;;;;;32.17;29.70;;;;;;;;;;5095846;28;20198;-79
2021/12/09 06:57:38;;;;;;;27.80;26.20;;;;;;;;;;5095932;28;20190;-79
2021/12/09 07:00:06;;;;;;;27.43;25.67;;;;;;;;;;5095726;28;20216;-72
2021/12/09 07:02:33;;;;;;;30.10;27.00;;;;;;;;;;5095475;28;20615;-77
2021/12/09 07:04:59;;;;;;;27.87;26.17;;;;;;;;;;5095430;28;20229;-81
2021/12/09 07:07:26;;;;;;;29.57;27.53;;;;;;;;;;5095484;28;20228;-83
2021/12/09 07:09:53;;;;;;;28.20;26.30;;;;;;;;;;5095592;28;20262;-78
2021/12/09 07:12:21;;;;;;;29.13;27.33;;;;;;;;;;5095549;28;20205;-75
2021/12/09 07:14:48;;;;;;;30.70;28.73;;;;;;;;;;5095462;28;20565;-72
2021/12/09 07:17:15;;;;;;;24.97;23.47;;;;;;;;;;5095457;28;20652;-74
2021/12/09 07:19:42;;;;;;;24.53;23.03;;;;;;;;;;5095166;28;20190;-85
2021/12/09 07:22:09;;;;;;;33.57;30.80;;;;;;;;;;5095100;28;20627;-86
2021/12/09 07:24:35;;;;;;;29.50;27.40;;;;;;;;;;5095255;28;20285;-78
2021/12/09 07:27:02;;;;;;;29.57;27.77;;;;;;;;;;5095215;28;20226;-72
2021/12/09 07:29:31;;;;;;;28.27;26.60;;;;;;;;;;5095007;28;20226;-86
2021/12/09 07:31:58;;;;;;;29.30;27.13;;;;;;;;;;5094896;28;20198;-82
2021/12/09 07:34:24;;;;;;;29.33;27.73;;;;;;;;;;5095203;28;20232;-79
2021/12/09 07:36:51;;;;;;;29.13;27.00;;;;;;;;;;5095097;28;20198;-75
2021/12/09 07:39:18;;;;;;;23.77;22.37;;;;;;;;;;5095078;28;20194;-76
2021/12/09 07:41:44;;;;;;;27.40;25.70;;;;;;;;;;5095003;28;20600;-78
2021/12/09 07:44:13;;;;;;;25.73;24.23;;;;;;;;;;5093307;28;20251;-79
2021/12/09 07:46:43;;;;;;;26.07;24.30;;;;;;;;;;5094596;28;20660;-76
2021/12/09 07:49:09;;;;;;;27.17;24.07;;;;;;;;;;5094422;28;20237;-79
2021/12/09 07:51:36;;;;;;;22.97;21.67;;;;;;;;;;5094827;28;20198;-80
2021/12/09 07:54:03;;;;;;;27.07;25.37;;;;;;;;;;5094716;28;20190;-76
2021/12/09 07:56:29;;;;;;;31.17;28.83;;;;;;;;;;5094730;28;20194;-82
2021/12/09 07:58:56;;;;;;;27.63;26.03;;;;;;;;;;5094316;28;20676;-81
2021/12/09 08:01:23;;;;;;;33.40;31.07;;;;;;;;;;5094493;28;20194;-75
2021/12/09 08:03:51;;;;;;;29.10;27.30;;;;;;;;;;5094276;28;20580;-74
2021/12/09 08:06:18;;;;;;;28.33;26.23;;;;;;;;;;5094500;28;20619;-77
2021/12/09 08:08:45;;;;;;;29.80;28.00;;;;;;;;;;5094082;28;20233;-75
2021/12/09 08:11:11;;;;;;;26.87;25.23;;;;;;;;;;5094192;28;20209;-76
2021/12/09 08:13:38;;;;;;;29.60;27.43;;;;;;;;;;5094319;28;20813;-77
2021/12/09 08:16:05;;;;;;;25.17;23.77;;;;;;;;;;5094045;28;20259;-82
2021/12/09 08:18:43;;;;;;;24.13;22.43;;;;;;;;;;5094235;28;20258;-74
2021/12/09 08:21:11;;;;;;;20.80;19.70;;;;;;;;;;5093997;28;20182;-74
2021/12/09 08:23:38;;;;;;;22.57;21.30;;;;;;;;;;5094362;28;20232;-73
2021/12/09 08:26:04;;;;;;;22.27;20.87;;;;;;;;;;5093836;28;20193;-75
2021/12/09 08:28:31;;;;;;;21.07;19.97;;;;;;;;;;5094039;28;20610;-76
2021/12/09 08:30:59;;;;;;;20.90;19.80;;;;;;;;;;5093896;28;20313;-76
2021/12/09 08:33:26;;;;;;;25.67;24.17;;;;;;;;;;5093922;28;20194;-74
2021/12/09 08:35:53;;;;;;;37.23;34.80;;;;;;;;;;5093826;28;20200;-77
2021/12/09 08:38:22;;;;;;;30.87;28.03;;;;;;;;;;5093614;28;20285;-76
2021/12/09 08:40:49;;;;;;;34.17;32.00;;;;;;;;;;5093797;28;20275;-75
2021/12/09 08:43:16;;;;;;;33.07;30.87;;;;;;;;;;5093506;28;20197;-75
2021/12/09 08:45:43;;;;;;;37.27;34.87;;;;;;;;;;5093791;28;20236;-75
2021/12/09 08:48:10;;;;;;;32.50;30.30;;;;;;;;;;5093659;28;20221;-74
2021/12/09 08:50:38;;;;;;;29.77;27.77;;;;;;;;;;5093339;28;20194;-75
2021/12/09 08:53:07;;;;;;;28.47;26.67;;;;;;;;;;5093198;28;20625;-77
2021/12/09 08:55:35;;;;;;;31.53;29.40;;;;;;;;;;5092845;28;20248;-74
2021/12/09 08:58:02;;;;;;;27.40;25.70;;;;;;;;;;5093438;28;20289;-76
2021/12/09 09:00:30;;;;;;;27.23;25.53;;;;;;;;;;5093198;28;20240;-76
2021/12/09 09:02:57;;;;;;;27.63;25.93;;;;;;;;;;5093158;28;20663;-73
2021/12/09 09:05:23;;;;;;;26.00;24.40;;;;;;;;;;5093391;28;20278;-74
2021/12/09 09:07:51;;;;;;;25.50;24.00;;;;;;;;;;5093285;28;20222;-76
2021/12/09 09:10:18;;;;;;;24.97;23.57;;;;;;;;;;5093310;28;20275;-73
2021/12/09 09:12:47;;;;;;;24.60;23.20;;;;;;;;;;5093281;28;20277;-73
2021/12/09 09:15:15;;;;;;;27.53;25.83;;;;;;;;;;5092859;28;20659;-76
2021/12/09 09:17:42;;;;;;;26.23;24.53;;;;;;;;;;5093171;28;20236;-73
2021/12/09 09:20:11;;;;;;;27.73;26.03;;;;;;;;;;5093115;28;20190;-73
2021/12/09 09:22:38;;;;;;;33.13;30.90;;;;;;;;;;5092974;28;20741;-73
2021/12/09 09:25:05;;;;;;;36.10;33.83;;;;;;;;;;5092707;28;20285;-73
2021/12/09 09:27:31;;;;;;;41.13;37.60;;;;;;;;;;5092539;28;20652;-73
2021/12/09 09:30:00;;;;;;;38.13;35.73;;;;;;;;;;5092685;28;20230;-72
2021/12/09 09:32:28;;;;;;;34.30;31.83;;;;;;;;;;5092581;28;20243;-73
2021/12/09 09:34:54;;;;;;;33.63;31.43;;;;;;;;;;5092849;28;20243;-73
2021/12/09 09:37:21;;;;;;;40.30;37.33;;;;;;;;;;5092739;28;20224;-73
2021/12/09 09:39:48;;;;;;;43.70;39.87;;;;;;;;;;5092443;28;20194;-73
2021/12/09 09:42:20;;;;;;;48.83;44.73;;;;;;;;;;5092470;28;20233;-73
2021/12/09 09:44:55;;;;;;;52.87;48.70;;;;;;;;;;5092690;28;20542;-73
2021/12/09 09:47:24;;;;;;;46.43;42.87;;;;;;;;;;5092703;28;20265;-72
2021/12/09 09:49:51;;;;;;;41.40;37.50;;;;;;;;;;5092211;28;20283;-73
2021/12/09 09:52:18;;;;;;;35.30;32.97;;;;;;;;;;5092646;28;20193;-72
2021/12/09 09:54:45;;;;;;;27.03;25.53;;;;;;;;;;5092630;28;20251;-72
2021/12/09 09:57:12;;;;;;;27.80;26.13;;;;;;;;;;5092250;28;20200;-72
2021/12/09 09:59:40;;;;;;;29.17;26.90;;;;;;;;;;5092546;28;20244;-72
2021/12/09 10:02:07;;;;;;;31.03;27.13;;;;;;;;;;5092424;28;20274;-72
2021/12/09 10:04:44;;;;;;;24.10;22.90;;;;;;;;;;5092156;28;20667;-72
2021/12/09 10:07:12;;;;;;;22.00;20.80;;;;;;;;;;5091626;28;20193;-71
2021/12/09 10:09:39;;;;;;;35.37;25.13;;;;;;;;;;5092385;28;20236;-72
2021/12/09 10:12:06;;;;;;;25.33;23.93;;;;;;;;;;5092173;28;20550;-72
2021/12/09 10:14:34;;;;;;;31.67;29.57;;;;;;;;;;5092635;28;20229;-72
2021/12/09 10:17:02;;;;;;;30.90;28.87;;;;;;;;;;5092058;28;20731;-72
2021/12/09 10:19:28;;;;;;;33.07;30.97;;;;;;;;;;5091966;28;20204;-72
2021/12/09 10:22:05;;;;;;;34.17;32.10;;;;;;;;;;5092021;28;20193;-72
2021/12/09 10:24:32;;;;;;;37.97;35.07;;;;;;;;;;5092290;28;20598;-72
2021/12/09 10:26:59;;;;;;;36.43;33.83;;;;;;;;;;5092316;28;20229;-73
2021/12/09 10:29:30;;;;;;;41.13;38.23;;;;;;;;;;5091990;28;20264;-71
2021/12/09 10:32:00;;;;;;;40.00;37.23;;;;;;;;;;5091957;28;20185;-73
2021/12/09 10:34:35;;;;;;;37.17;34.40;;;;;;;;;;5092608;28;20274;-73
2021/12/09 10:37:04;;;;;;;42.83;38.67;;;;;;;;;;5092246;28;20193;-77
2021/12/09 10:39:34;;;;;;;37.03;34.13;;;;;;;;;;5092386;28;20291;-74
2021/12/09 10:42:04;;;;;;;62.93;37.60;;;;;;;;;;5091829;28;20648;-75
2021/12/09 10:44:35;;;;;;;41.20;38.20;;;;;;;;;;5092111;28;20277;-80
2021/12/09 10:47:09;;;;;;;44.80;41.03;;;;;;;;;;5091820;28;20190;-75
2021/12/09 10:49:46;;;;;;;39.03;36.63;;;;;;;;;;5091705;28;20218;-76
2021/12/09 10:52:23;;;;;;;36.13;33.83;;;;;;;;;;5092099;28;20755;-75
2021/12/09 10:54:51;;;;;;;33.17;31.23;;;;;;;;;;5092190;28;20272;-75
2021/12/09 10:57:28;;;;;;;47.53;44.53;;;;;;;;;;5092407;28;20204;-75
2021/12/09 10:59:55;;;;;;;56.17;51.03;;;;;;;;;;5092196;28;20655;-75
2021/12/09 11:02:23;;;;;;;38.13;35.27;;;;;;;;;;5091660;28;20194;-79
2021/12/09 11:05:00;;;;;;;36.03;33.83;;;;;;;;;;5091605;28;20200;-75
2021/12/09 11:07:30;;;;;;;30.13;28.33;;;;;;;;;;5091876;28;20277;-74
2021/12/09 11:10:18;;;;;;;36.70;33.80;;;;;;;;;;5092063;28;20225;-80
2021/12/09 11:12:52;;;;;;;33.87;31.40;;;;;;;;;;5091979;28;20285;-76
2021/12/09 11:15:19;;;;;;;27.80;26.10;;;;;;;;;;5091453;28;20231;-75
2021/12/09 11:17:49;;;;;;;29.47;27.43;;;;;;;;;;5091577;28;20197;-75
2021/12/09 11:20:39;;;;;;;42.20;39.10;;;;;;;;;;5095669;28;20197;-75
2021/12/09 11:23:20;;;;;;;43.60;39.30;;;;;;;;;;5095062;28;20750;-76
2021/12/09 11:25:49;;;;;;;31.77;29.77;;;;;;;;;;5094851;28;20194;-76
2021/12/09 11:28:16;;;;;;;38.97;35.77;;;;;;;;;;5094912;28;20193;-79
2021/12/09 11:31:04;;;;;;;39.50;36.13;;;;;;;;;;5094949;28;20221;-79
2021/12/09 11:33:33;;;;;;;26.70;25.07;;;;;;;;;;5094889;28;20682;-80
2021/12/09 11:36:01;;;;;;;28.00;25.73;;;;;;;;;;5094839;28;20247;-79
2021/12/09 11:38:43;;;;;;;29.50;27.63;;;;;;;;;;5094768;28;20198;-82
2021/12/09 11:41:26;;;;;;;39.63;35.73;;;;;;;;;;5096462;28;20190;-79
2021/12/09 11:43:54;;;;;;;33.00;31.00;;;;;;;;;;5096146;28;20202;-79
2021/12/09 11:46:21;;;;;;;36.37;34.07;;;;;;;;;;5095402;28;20194;-80
2021/12/09 11:48:48;;;;;;;37.93;35.10;;;;;;;;;;5096571;28;20308;-80
2021/12/09 11:51:14;;;;;;;30.17;28.03;;;;;;;;;;5097752;28;20339;-81
2021/12/09 11:53:43;;;;;;;32.40;29.40;;;;;;;;;;5097204;28;20566;-81
2021/12/09 11:56:22;;;;;;;46.57;34.67;;;;;;;;;;5095165;28;20288;-81
2021/12/09 11:59:20;;;;;;;25.37;23.97;;;;;;;;;;5094632;28;20590;-80
2021/12/09 12:07:55;;;;;;;24.47;23.07;;;;;;;;;;5094932;28;20317;-79
2021/12/09 12:13:29;;;;;;;23.60;22.17;;;;;;;;;;5094595;28;20189;-77
2021/12/09 12:15:58;;;;;;;27.00;25.07;;;;;;;;;;5094090;28;20201;-76
2021/12/09 12:18:44;;;;;;;22.93;21.57;;;;;;;;;;5094071;28;20229;-76
2021/12/09 12:21:46;;;;;;;25.00;23.60;;;;;;;;;;5094235;28;20190;-76
2021/12/09 12:24:36;;;;;;;28.23;25.83;;;;;;;;;;5094035;28;20566;-76
2021/12/09 12:27:08;;;;;;;30.53;27.20;;;;;;;;;;5094020;28;20193;-77
2021/12/09 12:30:01;;;;;;;26.57;24.33;;;;;;;;;;5093301;28;20244;-76
2021/12/09 12:32:47;;;;;;;27.13;25.53;;;;;;;;;;5094027;28;20281;-76
2021/12/09 12:38:30;;;;;;;30.93;28.27;;;;;;;;;;5072793;28;20552;-76
2021/12/09 12:41:07;;;;;;;26.70;24.87;;;;;;;;;;5093819;28;20223;-76
2021/12/09 12:43:38;;;;;;;32.57;29.70;;;;;;;;;;5093881;28;20186;-76
2021/12/09 12:46:15;;;;;;;21.73;20.37;;;;;;;;;;5093627;28;20198;-76
2021/12/09 12:51:33;;;;;;;26.60;24.87;;;;;;;;;;5089701;28;20198;-77
2021/12/09 12:54:01;;;;;;;24.17;22.67;;;;;;;;;;5093385;28;20208;-77
2021/12/09 12:56:31;;;;;;;45.80;29.50;;;;;;;;;;5093654;28;20198;-78
2021/12/09 12:59:19;;;;;;;24.60;22.40;;;;;;;;;;5093547;28;20276;-78
2021/12/09 13:01:50;;;;;;;26.00;23.73;;;;;;;;;;5093234;28;20203;-78
2021/12/09 13:04:39;;;;;;;27.27;25.10;;;;;;;;;;5093231;28;20225;-76
2021/12/09 13:07:18;;;;;;;30.73;27.97;;;;;;;;;;5093152;28;20229;-75
2021/12/09 13:09:53;;;;;;;25.07;23.37;;;;;;;;;;5093087;28;20308;-79
2021/12/09 13:12:35;;;;;;;22.60;21.40;;;;;;;;;;5093035;28;20286;-79
2021/12/09 13:15:09;;;;;;;24.77;23.23;;;;;;;;;;5093726;28;20217;-78
2021/12/09 13:17:37;;;;;;;21.20;20.17;;;;;;;;;;5093106;28;20663;-77
2021/12/09 13:20:10;;;;;;;26.53;24.63;;;;;;;;;;5093952;28;20201;-80
2021/12/09 13:22:41;;;;;;;26.00;24.33;;;;;;;;;;5095057;28;20198;-80
2021/12/09 13:25:16;;;;;;;23.90;22.70;;;;;;;;;;5094380;28;20185;-76
2021/12/09 13:27:54;;;;;;;21.90;20.80;;;;;;;;;;5093265;28;20636;-80
2021/12/09 13:30:58;;;;;;;21.13;19.60;;;;;;;;;;5093602;28;20245;-76
2021/12/09 13:36:21;;;;;;;27.10;24.67;;;;;;;;;;5093706;28;20202;-73
2021/12/09 13:39:12;;;;;;;24.40;22.70;;;;;;;;;;5094633;28;20181;-83
2021/12/09 13:47:24;;;;;;;22.17;20.67;;;;;;;;;;5092424;28;20186;-83
2021/12/09 13:49:56;;;;;;;21.63;20.10;;;;;;;;;;5092328;28;20560;-83
2021/12/09 13:55:11;;;;;;;20.33;19.23;;;;;;;;;;5092911;28;20189;-81
2021/12/09 13:57:39;;;;;;;25.07;23.20;;;;;;;;;;5092871;28;20357;-77
2021/12/09 14:00:08;;;;;;;25.80;24.00;;;;;;;;;;5092506;28;20272;-78
2021/12/09 14:02:35;;;;;;;26.00;24.37;;;;;;;;;;5092556;28;20197;-80
2021/12/09 14:05:02;;;;;;;23.73;22.33;;;;;;;;;;5092519;28;20243;-78
2021/12/09 14:07:35;;;;;;;21.90;20.80;;;;;;;;;;5092193;28;20198;-81
2021/12/09 14:10:04;;;;;;;25.83;23.80;;;;;;;;;;5092543;28;20217;-83
2021/12/09 14:12:39;;;;;;;20.30;19.30;;;;;;;;;;5092436;28;20200;-83
2021/12/09 14:15:08;;;;;;;19.37;18.37;;;;;;;;;;5092387;28;20215;-79
2021/12/09 14:17:38;;;;;;;23.50;21.73;;;;;;;;;;5092262;28;20631;-80
2021/12/09 14:20:06;;;;;;;24.50;22.80;;;;;;;;;;5092313;28;20209;-84
2021/12/09 14:22:34;;;;;;;25.03;22.93;;;;;;;;;;5092299;28;20285;-81
2021/12/09 14:25:03;;;;;;;24.27;22.33;;;;;;;;;;5092614;28;20228;-81
2021/12/09 14:27:30;;;;;;;20.67;19.53;;;;;;;;;;5091968;28;20194;-83
2021/12/09 14:29:59;;;;;;;18.13;17.27;;;;;;;;;;5091711;28;20731;-77
2021/12/09 14:32:26;;;;;;;18.73;17.63;;;;;;;;;;5091972;28;20686;-80
2021/12/09 14:34:55;;;;;;;20.60;19.30;;;;;;;;;;5092211;28;20251;-83
2021/12/09 14:37:22;;;;;;;18.80;17.80;;;;;;;;;;5092163;28;20225;-82
2021/12/09 14:39:49;;;;;;;19.97;18.83;;;;;;;;;;5092181;28;20197;-80
2021/12/09 14:42:17;;;;;;;19.43;18.43;;;;;;;;;;5091859;28;20198;-82
2021/12/09 14:44:54;;;;;;;21.10;19.67;;;;;;;;;;5092639;28;20196;-78
2021/12/09 14:47:22;;;;;;;19.07;17.93;;;;;;;;;;5092149;28;20196;-79
2021/12/09 14:49:50;;;;;;;21.77;20.37;;;;;;;;;;5091659;28;20316;-83
2021/12/09 14:52:26;;;;;;;22.00;20.47;;;;;;;;;;5091801;28;20255;-79
2021/12/09 14:54:53;;;;;;;21.73;20.30;;;;;;;;;;5094780;28;20224;-83
2021/12/09 14:57:20;;;;;;;19.03;17.83;;;;;;;;;;5095651;28;20660;-84